Time;durP1;ratioP1;P1;durP2;ratioP2;P2;SDS_P1;SDS_P2;PMS_P1;PMS_P2;Temp;Humidity;BMP_temperature;BMP_pressure;BME280_temperature;BME280_humidity;BME280_pressure;Samples;Min_cycle;Max_cycle;Signal;HPM_P1;HPM_P2
2023/05/19 00:01:30;;;;;;;9.77;4.40;;;;;;;;;;5051503;28;20251;-75
2023/05/19 00:04:00;;;;;;;8.03;4.27;;;;;;;;;;5051287;28;20247;-76
2023/05/19 00:06:30;;;;;;;10.87;4.10;;;;;;;;;;5051215;28;20203;-76
2023/05/19 00:08:58;;;;;;;6.53;4.30;;;;;;;;;;5051618;28;20252;-76
2023/05/19 00:11:26;;;;;;;7.67;4.17;;;;;;;;;;5051359;28;20202;-76
2023/05/19 00:13:54;;;;;;;7.80;3.80;;;;;;;;;;5051453;28;20667;-76
2023/05/19 00:16:21;;;;;;;7.93;3.90;;;;;;;;;;5050710;28;20741;-76
2023/05/19 00:18:50;;;;;;;7.00;3.97;;;;;;;;;;5051061;28;20199;-76
2023/05/19 00:21:18;;;;;;;7.83;4.40;;;;;;;;;;5051234;28;20281;-76
2023/05/19 00:23:45;;;;;;;7.53;4.07;;;;;;;;;;5051163;28;20293;-76
2023/05/19 00:26:12;;;;;;;7.43;3.83;;;;;;;;;;5051264;28;20825;-75
2023/05/19 00:28:39;;;;;;;7.37;4.10;;;;;;;;;;5051311;28;20279;-76
2023/05/19 00:31:07;;;;;;;7.20;4.30;;;;;;;;;;5050754;28;20291;-76
2023/05/19 00:33:34;;;;;;;5.70;4.00;;;;;;;;;;5051121;28;20318;-75
2023/05/19 00:36:02;;;;;;;7.27;4.00;;;;;;;;;;5051132;28;20567;-76
2023/05/19 00:38:31;;;;;;;8.13;4.33;;;;;;;;;;5051128;28;20195;-75
2023/05/19 00:40:58;;;;;;;8.47;4.10;;;;;;;;;;5051164;28;20234;-75
2023/05/19 00:43:25;;;;;;;9.60;3.80;;;;;;;;;;5051077;28;20227;-75
2023/05/19 00:45:52;;;;;;;8.37;4.07;;;;;;;;;;5050388;28;20196;-75
2023/05/19 00:48:20;;;;;;;9.90;4.27;;;;;;;;;;5051074;28;20289;-76
2023/05/19 00:50:47;;;;;;;7.17;4.03;;;;;;;;;;5050894;28;20261;-74
2023/05/19 00:53:17;;;;;;;8.97;4.17;;;;;;;;;;5050954;28;20591;-74
2023/05/19 00:55:45;;;;;;;7.67;4.27;;;;;;;;;;5051293;28;20199;-74
2023/05/19 00:58:13;;;;;;;7.33;3.90;;;;;;;;;;5051040;28;20196;-75
2023/05/19 01:00:41;;;;;;;8.10;3.83;;;;;;;;;;5050504;28;20924;-75
2023/05/19 01:03:10;;;;;;;8.03;3.93;;;;;;;;;;5051356;28;20249;-75
2023/05/19 01:05:38;;;;;;;7.70;4.27;;;;;;;;;;5053444;28;20199;-75
2023/05/19 01:08:06;;;;;;;7.97;4.40;;;;;;;;;;5054733;28;20307;-74
2023/05/19 01:10:34;;;;;;;7.00;3.80;;;;;;;;;;5054969;28;20234;-75
2023/05/19 01:13:03;;;;;;;7.40;3.50;;;;;;;;;;5054827;28;20233;-74
2023/05/19 01:15:32;;;;;;;10.00;3.87;;;;;;;;;;5053779;28;20208;-74
2023/05/19 01:18:06;;;;;;;10.33;4.20;;;;;;;;;;5054647;28;20567;-75
2023/05/19 01:20:37;;;;;;;6.57;3.87;;;;;;;;;;5054272;28;20242;-75
2023/05/19 01:23:18;;;;;;;6.53;3.97;;;;;;;;;;5054540;28;20305;-74
2023/05/19 01:26:01;;;;;;;7.40;4.17;;;;;;;;;;5054800;28;20198;-75
2023/05/19 01:28:34;;;;;;;9.23;4.13;;;;;;;;;;5054512;28;20203;-74
2023/05/19 01:31:05;;;;;;;8.07;4.03;;;;;;;;;;5053889;28;20619;-74
2023/05/19 01:33:33;;;;;;;9.27;4.00;;;;;;;;;;5053952;28;20227;-75
2023/05/19 01:36:01;;;;;;;7.30;4.03;;;;;;;;;;5054305;28;20739;-74
2023/05/19 01:38:29;;;;;;;7.77;4.20;;;;;;;;;;5054175;28;20202;-74
2023/05/19 01:40:57;;;;;;;8.63;4.43;;;;;;;;;;5054155;28;20262;-75
2023/05/19 01:43:25;;;;;;;7.70;4.47;;;;;;;;;;5053802;28;20279;-75
2023/05/19 01:45:53;;;;;;;7.30;4.30;;;;;;;;;;5054268;28;20197;-74
2023/05/19 01:48:22;;;;;;;6.07;4.27;;;;;;;;;;5053973;28;20238;-74
2023/05/19 01:50:49;;;;;;;7.83;3.90;;;;;;;;;;5053925;28;20637;-75
2023/05/19 01:53:16;;;;;;;6.90;4.60;;;;;;;;;;5054112;28;20222;-75
2023/05/19 01:55:44;;;;;;;6.33;4.07;;;;;;;;;;5054336;28;20233;-75
2023/05/19 01:58:21;;;;;;;8.40;4.27;;;;;;;;;;5053527;28;20203;-75
2023/05/19 02:00:53;;;;;;;6.63;4.13;;;;;;;;;;5053771;28;20280;-74
2023/05/19 02:03:43;;;;;;;7.53;3.70;;;;;;;;;;5029206;28;20210;-75
2023/05/19 02:06:16;;;;;;;5.90;4.37;;;;;;;;;;5013841;28;20690;-75
2023/05/19 02:08:44;;;;;;;7.20;4.17;;;;;;;;;;5013997;28;20226;-75
2023/05/19 02:11:15;;;;;;;6.77;4.10;;;;;;;;;;5014429;28;20291;-75
2023/05/19 02:13:44;;;;;;;7.23;4.30;;;;;;;;;;5018455;28;20210;-74
2023/05/19 02:16:11;;;;;;;8.07;4.33;;;;;;;;;;5052342;28;20207;-75
2023/05/19 02:18:44;;;;;;;7.97;4.13;;;;;;;;;;5053516;28;20285;-75
2023/05/19 02:21:12;;;;;;;11.47;4.33;;;;;;;;;;5053091;28;20701;-75
2023/05/19 02:23:40;;;;;;;9.07;4.10;;;;;;;;;;5053716;28;20201;-74
2023/05/19 02:26:08;;;;;;;7.13;3.90;;;;;;;;;;5053034;28;20195;-75
2023/05/19 02:28:36;;;;;;;10.00;4.23;;;;;;;;;;5052813;28;20197;-75
2023/05/19 02:31:07;;;;;;;8.83;4.20;;;;;;;;;;5053186;28;20699;-75
2023/05/19 02:33:35;;;;;;;9.93;4.17;;;;;;;;;;5053197;28;20257;-74
2023/05/19 02:36:03;;;;;;;7.67;3.97;;;;;;;;;;5053572;28;20209;-73
2023/05/19 02:38:31;;;;;;;10.27;4.50;;;;;;;;;;5053293;28;20220;-74
2023/05/19 02:40:58;;;;;;;6.53;4.27;;;;;;;;;;5053099;28;20201;-76
2023/05/19 02:43:25;;;;;;;7.43;4.10;;;;;;;;;;5052882;28;20295;-76
2023/05/19 02:45:52;;;;;;;6.10;3.77;;;;;;;;;;5052705;28;20231;-76
2023/05/19 02:48:20;;;;;;;7.97;4.13;;;;;;;;;;5053175;28;20298;-73
2023/05/19 02:50:47;;;;;;;6.93;4.23;;;;;;;;;;5053019;28;20199;-74
2023/05/19 02:53:15;;;;;;;6.67;4.30;;;;;;;;;;5052521;28;20290;-73
2023/05/19 02:55:43;;;;;;;7.07;4.50;;;;;;;;;;5052218;28;20754;-76
2023/05/19 02:58:10;;;;;;;10.13;4.57;;;;;;;;;;5052687;28;20308;-72
2023/05/19 03:00:37;;;;;;;10.57;4.70;;;;;;;;;;5052314;28;20669;-74
2023/05/19 03:03:04;;;;;;;9.67;4.83;;;;;;;;;;5052540;28;20321;-76
2023/05/19 03:05:31;;;;;;;9.37;4.50;;;;;;;;;;5052898;28;20201;-76
2023/05/19 03:08:01;;;;;;;8.73;4.70;;;;;;;;;;5052632;28;20555;-76
2023/05/19 03:10:29;;;;;;;9.97;5.23;;;;;;;;;;5052269;28;20206;-75
2023/05/19 03:12:56;;;;;;;9.00;5.30;;;;;;;;;;5052462;28;20280;-76
2023/05/19 03:15:23;;;;;;;9.40;5.20;;;;;;;;;;5052359;28;20289;-77
2023/05/19 03:17:51;;;;;;;13.93;5.90;;;;;;;;;;5052533;28;20285;-76
2023/05/19 03:20:18;;;;;;;9.70;5.40;;;;;;;;;;5052398;28;20285;-76
2023/05/19 03:22:45;;;;;;;12.00;5.63;;;;;;;;;;5052458;28;20321;-76
2023/05/19 03:25:12;;;;;;;13.43;5.97;;;;;;;;;;5052208;28;20302;-77
2023/05/19 03:27:41;;;;;;;10.07;5.43;;;;;;;;;;5051751;28;20247;-75
2023/05/19 03:30:08;;;;;;;11.93;5.40;;;;;;;;;;5052098;28;20226;-76
2023/05/19 03:32:37;;;;;;;10.77;6.10;;;;;;;;;;5052412;28;20286;-75
2023/05/19 03:35:04;;;;;;;10.93;6.10;;;;;;;;;;5052283;28;20206;-76
2023/05/19 03:37:32;;;;;;;12.57;6.40;;;;;;;;;;5051995;28;20205;-76
2023/05/19 03:39:59;;;;;;;11.27;6.43;;;;;;;;;;5051496;28;20208;-75
2023/05/19 03:42:26;;;;;;;11.50;6.27;;;;;;;;;;5051942;28;20728;-76
2023/05/19 03:44:55;;;;;;;10.43;5.93;;;;;;;;;;5051554;28;20671;-74
2023/05/19 03:47:22;;;;;;;12.10;6.50;;;;;;;;;;5052240;28;20223;-75
2023/05/19 03:49:49;;;;;;;15.03;6.57;;;;;;;;;;5052002;28;20294;-75
2023/05/19 03:52:17;;;;;;;15.27;6.87;;;;;;;;;;5051594;28;20223;-76
2023/05/19 03:54:44;;;;;;;13.00;6.70;;;;;;;;;;5051156;28;20199;-75
2023/05/19 03:57:11;;;;;;;17.30;7.47;;;;;;;;;;5051384;28;20239;-76
2023/05/19 03:59:40;;;;;;;14.57;7.27;;;;;;;;;;5051659;28;20701;-75
2023/05/19 04:02:08;;;;;;;15.17;7.63;;;;;;;;;;5051321;28;20647;-75
2023/05/19 04:04:36;;;;;;;14.17;6.93;;;;;;;;;;5051515;28;20207;-75
2023/05/19 04:07:03;;;;;;;12.40;7.37;;;;;;;;;;5051478;28;20203;-75
2023/05/19 04:09:34;;;;;;;15.80;8.17;;;;;;;;;;5051257;28;20291;-77
2023/05/19 04:12:01;;;;;;;18.43;8.77;;;;;;;;;;5051612;28;20197;-76
2023/05/19 04:14:28;;;;;;;18.17;8.13;;;;;;;;;;5051264;28;20213;-75
2023/05/19 04:16:55;;;;;;;14.40;8.40;;;;;;;;;;5051245;28;20302;-74
2023/05/19 04:19:24;;;;;;;15.43;8.07;;;;;;;;;;5051858;28;20276;-76
2023/05/19 04:21:51;;;;;;;15.13;8.17;;;;;;;;;;5051102;28;20234;-75
2023/05/19 04:24:18;;;;;;;13.73;7.77;;;;;;;;;;5050787;28;20205;-75
2023/05/19 04:26:46;;;;;;;16.43;8.03;;;;;;;;;;5051225;28;20224;-75
2023/05/19 04:29:16;;;;;;;15.70;7.57;;;;;;;;;;5051150;28;20198;-75
2023/05/19 04:31:44;;;;;;;17.67;7.93;;;;;;;;;;5052176;28;20194;-75
2023/05/19 04:34:11;;;;;;;15.77;8.07;;;;;;;;;;5050910;28;20292;-74
2023/05/19 04:36:40;;;;;;;12.87;7.53;;;;;;;;;;5051231;28;20568;-76
2023/05/19 04:39:10;;;;;;;16.07;7.87;;;;;;;;;;5050906;28;20665;-75
2023/05/19 04:41:39;;;;;;;14.40;8.13;;;;;;;;;;5055526;28;20202;-76
2023/05/19 04:44:07;;;;;;;15.03;8.43;;;;;;;;;;5055057;28;20679;-75
2023/05/19 04:46:34;;;;;;;16.10;8.60;;;;;;;;;;5055609;28;20568;-75
2023/05/19 04:49:02;;;;;;;16.40;8.23;;;;;;;;;;5055522;28;20206;-76
2023/05/19 04:51:30;;;;;;;18.20;8.80;;;;;;;;;;5054851;28;20229;-76
2023/05/19 04:53:58;;;;;;;17.97;8.30;;;;;;;;;;5054954;28;20226;-76
2023/05/19 04:56:26;;;;;;;17.63;8.67;;;;;;;;;;5055181;28;20234;-75
2023/05/19 04:58:53;;;;;;;17.17;8.50;;;;;;;;;;5055002;28;20229;-75
2023/05/19 05:01:24;;;;;;;15.70;8.07;;;;;;;;;;5055130;28;20222;-76
2023/05/19 05:03:53;;;;;;;17.30;8.67;;;;;;;;;;5054545;28;20234;-76
2023/05/19 05:06:21;;;;;;;19.30;8.57;;;;;;;;;;5054396;28;20207;-75
2023/05/19 05:08:48;;;;;;;16.87;7.90;;;;;;;;;;5054617;28;20207;-76
2023/05/19 05:11:17;;;;;;;16.63;8.57;;;;;;;;;;5054752;28;20673;-75
2023/05/19 05:13:45;;;;;;;16.43;8.60;;;;;;;;;;5039290;28;20245;-76
2023/05/19 05:16:13;;;;;;;17.03;8.53;;;;;;;;;;5034392;28;20295;-76
2023/05/19 05:18:43;;;;;;;14.77;8.23;;;;;;;;;;5034827;28;20199;-75
2023/05/19 05:21:11;;;;;;;14.40;8.33;;;;;;;;;;5034281;28;20673;-76
2023/05/19 05:23:38;;;;;;;14.97;8.70;;;;;;;;;;5035038;28;20239;-75
2023/05/19 05:26:10;;;;;;;18.20;8.83;;;;;;;;;;5034151;28;20760;-75
2023/05/19 05:28:38;;;;;;;16.83;9.07;;;;;;;;;;5034494;28;20661;-76
2023/05/19 05:31:05;;;;;;;14.70;8.57;;;;;;;;;;5034137;28;20236;-75
2023/05/19 05:33:33;;;;;;;13.50;8.53;;;;;;;;;;5034316;28;20236;-75
2023/05/19 05:36:00;;;;;;;12.67;7.73;;;;;;;;;;5033830;28;20225;-75
2023/05/19 05:38:27;;;;;;;13.77;7.50;;;;;;;;;;5034651;28;20228;-76
2023/05/19 05:40:54;;;;;;;14.77;8.03;;;;;;;;;;5034400;28;20293;-76
2023/05/19 05:43:21;;;;;;;11.83;7.60;;;;;;;;;;5034200;28;20715;-75
2023/05/19 05:45:50;;;;;;;14.03;6.87;;;;;;;;;;5033852;28;20287;-75
2023/05/19 05:48:17;;;;;;;12.00;6.40;;;;;;;;;;5034287;28;20224;-76
2023/05/19 05:50:46;;;;;;;14.43;6.33;;;;;;;;;;5033859;28;20606;-76
2023/05/19 05:53:16;;;;;;;10.07;6.63;;;;;;;;;;5033829;28;20291;-75
2023/05/19 05:55:44;;;;;;;10.80;6.83;;;;;;;;;;5033960;28;20223;-76
2023/05/19 05:58:11;;;;;;;9.20;6.37;;;;;;;;;;5034105;28;20287;-76
2023/05/19 06:00:38;;;;;;;10.53;6.80;;;;;;;;;;5034098;28;20279;-75
2023/05/19 06:03:06;;;;;;;10.07;6.47;;;;;;;;;;5033728;28;20315;-75
2023/05/19 06:05:34;;;;;;;10.00;6.00;;;;;;;;;;5033061;28;20228;-76
2023/05/19 06:08:01;;;;;;;11.17;6.43;;;;;;;;;;5033746;28;20236;-76
2023/05/19 06:10:28;;;;;;;10.40;6.47;;;;;;;;;;5033911;28;20283;-76
2023/05/19 06:12:56;;;;;;;10.47;5.97;;;;;;;;;;5033815;28;20283;-75
2023/05/19 06:15:23;;;;;;;10.07;5.87;;;;;;;;;;5049424;28;20882;-76
2023/05/19 06:17:50;;;;;;;9.07;6.20;;;;;;;;;;5053375;28;20226;-76
2023/05/19 06:20:19;;;;;;;11.47;6.23;;;;;;;;;;5053010;28;20294;-76
2023/05/19 06:22:46;;;;;;;9.47;5.90;;;;;;;;;;5053328;28;20311;-75
2023/05/19 06:25:13;;;;;;;8.20;5.27;;;;;;;;;;5053710;28;20206;-75
2023/05/19 06:27:40;;;;;;;8.23;5.63;;;;;;;;;;5053513;28;20203;-76
2023/05/19 06:30:08;;;;;;;8.23;5.80;;;;;;;;;;5053363;28;20283;-76
2023/05/19 06:32:35;;;;;;;8.77;5.45;;;;;;;;;;5053050;28;20200;-76
2023/05/19 06:35:03;;;;;;;9.38;5.68;;;;;;;;;;5052869;28;20295;-76
2023/05/19 06:37:31;;;;;;;7.78;5.45;;;;;;;;;;5053460;28;20227;-77
2023/05/19 06:39:58;;;;;;;7.95;6.07;;;;;;;;;;5053456;28;20683;-76
2023/05/19 06:42:25;;;;;;;9.65;5.45;;;;;;;;;;5053023;28;20204;-75
2023/05/19 06:44:53;;;;;;;7.07;5.25;;;;;;;;;;5052881;28;20298;-77
2023/05/19 06:47:20;;;;;;;9.77;5.47;;;;;;;;;;5053247;28;20231;-76
2023/05/19 06:49:49;;;;;;;9.30;5.22;;;;;;;;;;5052747;28;20257;-76
2023/05/19 06:52:16;;;;;;;9.77;5.18;;;;;;;;;;5053234;28;20723;-76
2023/05/19 06:54:45;;;;;;;11.85;5.47;;;;;;;;;;5052916;28;20887;-76
2023/05/19 06:57:12;;;;;;;6.68;4.97;;;;;;;;;;5052492;28;20366;-76
2023/05/19 06:59:40;;;;;;;6.97;4.93;;;;;;;;;;5053129;28;20290;-76
2023/05/19 07:02:07;;;;;;;7.70;4.93;;;;;;;;;;5051815;28;20754;-78
2023/05/19 07:04:34;;;;;;;8.10;4.70;;;;;;;;;;5052672;28;20337;-76
2023/05/19 07:07:01;;;;;;;10.40;4.70;;;;;;;;;;5052544;28;20192;-76
2023/05/19 07:09:29;;;;;;;7.93;5.00;;;;;;;;;;5052296;28;20242;-76
2023/05/19 07:11:57;;;;;;;10.07;4.95;;;;;;;;;;5052753;28;20633;-76
2023/05/19 07:14:24;;;;;;;7.20;4.63;;;;;;;;;;5052441;28;20882;-76
2023/05/19 07:16:52;;;;;;;7.47;4.72;;;;;;;;;;5052168;28;20278;-76
2023/05/19 07:19:19;;;;;;;9.82;4.75;;;;;;;;;;5052298;28;20279;-75
2023/05/19 07:21:46;;;;;;;11.07;5.25;;;;;;;;;;5052540;28;20661;-76
2023/05/19 07:24:13;;;;;;;6.18;4.25;;;;;;;;;;5052322;28;20314;-77
2023/05/19 07:26:41;;;;;;;7.38;4.20;;;;;;;;;;5052214;28;20249;-77
2023/05/19 07:29:09;;;;;;;6.82;4.25;;;;;;;;;;5052365;28;20210;-76
2023/05/19 07:31:37;;;;;;;8.82;4.72;;;;;;;;;;5051842;28;20739;-75
2023/05/19 07:34:04;;;;;;;7.10;4.88;;;;;;;;;;5051931;28;20227;-76
2023/05/19 07:36:31;;;;;;;6.78;4.50;;;;;;;;;;5052567;28;20223;-75
2023/05/19 07:38:58;;;;;;;6.85;4.80;;;;;;;;;;5052247;28;20231;-75
2023/05/19 07:41:26;;;;;;;5.43;4.25;;;;;;;;;;5051721;28;20236;-76
2023/05/19 07:43:53;;;;;;;6.00;4.38;;;;;;;;;;5051813;28;20719;-76
2023/05/19 07:46:21;;;;;;;7.68;4.80;;;;;;;;;;5034499;28;20295;-75
2023/05/19 07:48:49;;;;;;;6.95;4.50;;;;;;;;;;5039228;28;20204;-75
2023/05/19 07:51:16;;;;;;;6.63;4.60;;;;;;;;;;5026902;28;20205;-76
2023/05/19 07:53:43;;;;;;;7.38;5.30;;;;;;;;;;5036572;28;20274;-75
2023/05/19 07:56:10;;;;;;;7.18;4.72;;;;;;;;;;5043363;28;20202;-75
2023/05/19 07:58:37;;;;;;;8.82;5.40;;;;;;;;;;5044006;28;20223;-75
2023/05/19 08:01:05;;;;;;;11.98;4.93;;;;;;;;;;5035133;28;20220;-75
2023/05/19 08:03:33;;;;;;;10.60;5.75;;;;;;;;;;5045876;28;20220;-74
2023/05/19 08:06:00;;;;;;;7.53;5.30;;;;;;;;;;5044125;28;20197;-75
2023/05/19 08:08:28;;;;;;;8.35;5.35;;;;;;;;;;5042682;28;20286;-75
2023/05/19 08:10:55;;;;;;;8.95;5.20;;;;;;;;;;5036679;28;20354;-75
2023/05/19 08:13:22;;;;;;;10.88;4.90;;;;;;;;;;5047835;28;20207;-75
2023/05/19 08:15:49;;;;;;;9.68;5.93;;;;;;;;;;5050516;28;20279;-75
2023/05/19 08:18:16;;;;;;;9.38;5.40;;;;;;;;;;5036256;28;20197;-75
2023/05/19 08:20:45;;;;;;;8.38;5.00;;;;;;;;;;5043554;28;20196;-76
2023/05/19 08:23:13;;;;;;;15.18;5.40;;;;;;;;;;5035123;28;20220;-74
2023/05/19 08:25:40;;;;;;;7.15;4.65;;;;;;;;;;5047712;28;20288;-74
2023/05/19 08:28:07;;;;;;;11.27;5.25;;;;;;;;;;5038390;28;20234;-76
2023/05/19 08:30:34;;;;;;;7.70;4.43;;;;;;;;;;5039955;28;20206;-74
2023/05/19 08:33:02;;;;;;;7.00;4.90;;;;;;;;;;5045567;28;20318;-75
2023/05/19 08:35:29;;;;;;;8.27;4.55;;;;;;;;;;5031172;28;20223;-75
2023/05/19 08:37:57;;;;;;;9.98;4.70;;;;;;;;;;5026615;28;20192;-75
2023/05/19 08:40:29;;;;;;;7.22;4.13;;;;;;;;;;5035101;28;20219;-75
2023/05/19 08:42:56;;;;;;;6.28;4.70;;;;;;;;;;5038672;28;20196;-76
2023/05/19 08:45:23;;;;;;;8.70;4.63;;;;;;;;;;5046895;28;20279;-74
2023/05/19 08:47:51;;;;;;;10.30;4.93;;;;;;;;;;5035752;28;20218;-75
2023/05/19 08:50:21;;;;;;;7.50;4.35;;;;;;;;;;5042288;28;20192;-76
2023/05/19 08:52:52;;;;;;;8.10;4.60;;;;;;;;;;5033854;28;20234;-75
2023/05/19 08:55:26;;;;;;;6.63;4.53;;;;;;;;;;5031518;28;20287;-75
2023/05/19 08:57:53;;;;;;;9.57;4.40;;;;;;;;;;5026249;28;20333;-75
2023/05/19 09:00:21;;;;;;;8.43;4.10;;;;;;;;;;5023017;28;20207;-76
2023/05/19 09:02:50;;;;;;;6.50;4.28;;;;;;;;;;5029839;28;20196;-76
2023/05/19 09:05:18;;;;;;;9.52;4.38;;;;;;;;;;5021329;28;20348;-76
2023/05/19 09:07:45;;;;;;;8.00;4.43;;;;;;;;;;5020831;28;20197;-76
2023/05/19 09:10:14;;;;;;;11.75;5.10;;;;;;;;;;5021023;28;20662;-75
2023/05/19 09:12:45;;;;;;;7.97;4.20;;;;;;;;;;5021136;28;20680;-75
2023/05/19 09:15:13;;;;;;;9.52;5.18;;;;;;;;;;5024054;28;20670;-76
2023/05/19 09:17:40;;;;;;;8.45;4.30;;;;;;;;;;5019470;28;20623;-75
2023/05/19 09:20:10;;;;;;;10.00;4.60;;;;;;;;;;5020525;28;20201;-75
2023/05/19 09:22:41;;;;;;;7.95;3.95;;;;;;;;;;5021990;28;20224;-76
2023/05/19 09:25:18;;;;;;;9.82;4.88;;;;;;;;;;5019163;28;20216;-76
2023/05/19 09:27:48;;;;;;;9.13;4.53;;;;;;;;;;5025073;28;20205;-76
2023/05/19 09:30:16;;;;;;;7.78;4.68;;;;;;;;;;5025185;28;20193;-75
2023/05/19 09:32:43;;;;;;;6.68;4.53;;;;;;;;;;5025193;28;20315;-76
2023/05/19 09:35:12;;;;;;;9.07;4.68;;;;;;;;;;5022366;28;20228;-76
2023/05/19 09:37:42;;;;;;;7.18;4.65;;;;;;;;;;5024813;28;20575;-76
2023/05/19 09:40:10;;;;;;;8.93;4.80;;;;;;;;;;5025224;28;20220;-76
2023/05/19 09:42:38;;;;;;;9.88;4.68;;;;;;;;;;5024874;28;20696;-75
2023/05/19 09:45:07;;;;;;;9.90;4.43;;;;;;;;;;5024676;28;20738;-76
2023/05/19 09:47:36;;;;;;;7.90;4.63;;;;;;;;;;5033167;28;20298;-76
2023/05/19 09:50:03;;;;;;;8.23;4.53;;;;;;;;;;5034264;28;20220;-76
2023/05/19 09:52:30;;;;;;;7.10;4.90;;;;;;;;;;5034627;28;20677;-78
2023/05/19 09:54:59;;;;;;;8.63;4.38;;;;;;;;;;5034021;28;20250;-77
2023/05/19 09:57:27;;;;;;;8.88;4.35;;;;;;;;;;5033410;28;20210;-76
2023/05/19 09:59:55;;;;;;;6.45;4.28;;;;;;;;;;5033946;28;20544;-75
2023/05/19 10:02:25;;;;;;;8.50;4.32;;;;;;;;;;5034024;28;20196;-76
2023/05/19 10:04:53;;;;;;;7.40;4.40;;;;;;;;;;5033483;28;20236;-76
2023/05/19 10:07:22;;;;;;;8.13;4.30;;;;;;;;;;5034016;28;20571;-75
2023/05/19 10:09:50;;;;;;;7.07;3.95;;;;;;;;;;5034080;28;20220;-76
2023/05/19 10:12:18;;;;;;;6.93;4.10;;;;;;;;;;5033311;28;20228;-76
2023/05/19 10:14:46;;;;;;;6.07;4.10;;;;;;;;;;5030756;28;20208;-76
2023/05/19 10:17:14;;;;;;;7.53;3.95;;;;;;;;;;5014961;28;20291;-76
2023/05/19 10:19:45;;;;;;;6.07;4.13;;;;;;;;;;5013960;28;20197;-76
2023/05/19 10:22:12;;;;;;;8.60;5.35;;;;;;;;;;5014191;28;20193;-77
2023/05/19 10:24:39;;;;;;;5.40;3.80;;;;;;;;;;5013725;28;20251;-76
2023/05/19 10:27:09;;;;;;;8.07;3.90;;;;;;;;;;5013590;28;20284;-76
2023/05/19 10:29:37;;;;;;;6.97;3.80;;;;;;;;;;5013902;28;20228;-76
2023/05/19 10:32:07;;;;;;;10.45;4.43;;;;;;;;;;5013698;28;20201;-76
2023/05/19 10:34:48;;;;;;;6.80;3.70;;;;;;;;;;5013172;28;20257;-76
2023/05/19 10:37:21;;;;;;;7.65;4.10;;;;;;;;;;5012406;28;20201;-76
2023/05/19 10:39:49;;;;;;;5.78;3.55;;;;;;;;;;5012853;28;20284;-77
2023/05/19 10:42:18;;;;;;;6.38;3.55;;;;;;;;;;5013080;28;20229;-76
2023/05/19 10:44:51;;;;;;;7.38;3.22;;;;;;;;;;5012988;28;20229;-76
2023/05/19 10:47:23;;;;;;;5.45;3.95;;;;;;;;;;5013562;28;20208;-76
2023/05/19 10:49:50;;;;;;;5.60;3.47;;;;;;;;;;5012907;28;20293;-76
2023/05/19 10:52:21;;;;;;;6.10;3.42;;;;;;;;;;5013193;28;20227;-77
2023/05/19 10:54:50;;;;;;;6.15;3.50;;;;;;;;;;5012733;28;20665;-76
2023/05/19 10:57:17;;;;;;;4.75;3.42;;;;;;;;;;5029080;28;20204;-77
2023/05/19 10:59:44;;;;;;;4.53;3.10;;;;;;;;;;5031515;28;20898;-76
2023/05/19 11:02:29;;;;;;;5.35;3.42;;;;;;;;;;5026997;28;20653;-77
2023/05/19 11:04:57;;;;;;;7.72;2.95;;;;;;;;;;5032867;28;20319;-77
2023/05/19 11:07:26;;;;;;;7.10;3.33;;;;;;;;;;5031545;28;20280;-78
2023/05/19 11:09:53;;;;;;;5.68;3.50;;;;;;;;;;5031918;28;20199;-76
2023/05/19 11:12:21;;;;;;;4.63;3.13;;;;;;;;;;5032273;28;20254;-76
2023/05/19 11:14:48;;;;;;;6.57;3.30;;;;;;;;;;5034587;28;20203;-75
2023/05/19 11:17:16;;;;;;;7.15;3.22;;;;;;;;;;5034810;28;20210;-76
2023/05/19 11:19:53;;;;;;;4.88;3.42;;;;;;;;;;5033984;28;20220;-76
2023/05/19 11:22:23;;;;;;;9.85;5.32;;;;;;;;;;5033349;28;20246;-76
2023/05/19 11:24:53;;;;;;;5.60;4.15;;;;;;;;;;5034158;28;20391;-75
2023/05/19 11:27:20;;;;;;;6.97;4.50;;;;;;;;;;5034200;28;20200;-76
2023/05/19 11:29:48;;;;;;;6.50;3.85;;;;;;;;;;5033102;28;20776;-76
2023/05/19 11:32:16;;;;;;;13.35;4.30;;;;;;;;;;5030774;28;20199;-76
2023/05/19 11:34:44;;;;;;;6.65;3.40;;;;;;;;;;5031937;28;20196;-76
2023/05/19 11:37:11;;;;;;;5.05;3.20;;;;;;;;;;5030586;28;20760;-78
2023/05/19 11:39:40;;;;;;;4.63;3.20;;;;;;;;;;5033121;28;20284;-77
2023/05/19 11:42:10;;;;;;;6.63;3.72;;;;;;;;;;5033195;28;20231;-77
2023/05/19 11:44:37;;;;;;;5.75;2.90;;;;;;;;;;5032859;28;20224;-76
2023/05/19 11:47:04;;;;;;;5.43;3.40;;;;;;;;;;5032706;28;20249;-77
2023/05/19 11:49:32;;;;;;;6.32;3.75;;;;;;;;;;5032486;28;20224;-76
2023/05/19 11:52:00;;;;;;;6.57;3.95;;;;;;;;;;5032691;28;20646;-77
2023/05/19 11:54:31;;;;;;;5.97;3.80;;;;;;;;;;5032571;28;20279;-77
2023/05/19 11:57:00;;;;;;;4.47;3.00;;;;;;;;;;5034804;28;20574;-76
2023/05/19 11:59:33;;;;;;;7.15;3.20;;;;;;;;;;5032445;28;20197;-77
2023/05/19 12:02:03;;;;;;;5.32;3.42;;;;;;;;;;5034072;28;20239;-76
2023/05/19 12:04:31;;;;;;;6.55;3.30;;;;;;;;;;5030496;28;20611;-77
2023/05/19 12:06:58;;;;;;;11.38;3.80;;;;;;;;;;5030734;28;20587;-77
2023/05/19 12:09:25;;;;;;;5.72;3.42;;;;;;;;;;5025953;28;20715;-77
2023/05/19 12:11:53;;;;;;;6.38;3.33;;;;;;;;;;5031744;28;20232;-77
2023/05/19 12:14:20;;;;;;;7.88;4.05;;;;;;;;;;5043154;28;20212;-76
2023/05/19 12:16:48;;;;;;;5.53;3.30;;;;;;;;;;5036200;28;20195;-77
2023/05/19 12:19:16;;;;;;;5.70;3.28;;;;;;;;;;5038891;28;20295;-77
2023/05/19 12:21:43;;;;;;;4.65;3.10;;;;;;;;;;5024430;28;20686;-77
2023/05/19 12:24:10;;;;;;;5.75;3.05;;;;;;;;;;5025744;28;20655;-76
2023/05/19 12:26:37;;;;;;;6.25;3.13;;;;;;;;;;5026242;28;20288;-77
2023/05/19 12:29:06;;;;;;;4.43;3.08;;;;;;;;;;5025538;28;20284;-77
2023/05/19 12:31:33;;;;;;;5.80;3.40;;;;;;;;;;5025377;28;20196;-77
2023/05/19 12:34:02;;;;;;;4.75;2.83;;;;;;;;;;5028587;28;20227;-77
2023/05/19 12:36:30;;;;;;;5.50;3.10;;;;;;;;;;5025369;28;20227;-77
2023/05/19 12:38:58;;;;;;;7.72;4.00;;;;;;;;;;5025212;28;20229;-76
2023/05/19 12:41:26;;;;;;;5.68;3.47;;;;;;;;;;5026918;28;20216;-76
2023/05/19 12:43:53;;;;;;;7.72;3.30;;;;;;;;;;5025667;28;20673;-76
2023/05/19 12:46:21;;;;;;;10.02;3.72;;;;;;;;;;5030835;28;20219;-76
2023/05/19 12:48:48;;;;;;;6.50;3.28;;;;;;;;;;5028251;28;20204;-76
2023/05/19 12:51:20;;;;;;;4.72;3.00;;;;;;;;;;5040415;28;20187;-77
2023/05/19 12:53:47;;;;;;;5.35;2.85;;;;;;;;;;5036254;28;20291;-77
2023/05/19 12:56:15;;;;;;;5.60;3.13;;;;;;;;;;5032674;28;20648;-77
2023/05/19 12:58:43;;;;;;;5.13;3.45;;;;;;;;;;5042942;28;20224;-77
2023/05/19 13:01:16;;;;;;;9.38;4.13;;;;;;;;;;5042517;28;20228;-77
2023/05/19 13:03:43;;;;;;;4.50;2.40;;;;;;;;;;5040261;28;20231;-76
2023/05/19 13:06:11;;;;;;;8.30;3.38;;;;;;;;;;5035899;28;20237;-77
2023/05/19 13:08:39;;;;;;;6.28;2.80;;;;;;;;;;5049122;28;20224;-77
2023/05/19 13:11:06;;;;;;;4.70;3.10;;;;;;;;;;5043712;28;20290;-77
2023/05/19 13:13:34;;;;;;;6.25;3.13;;;;;;;;;;5042638;28;20274;-77
2023/05/19 13:16:01;;;;;;;9.23;3.50;;;;;;;;;;5038588;28;20223;-77
2023/05/19 13:18:30;;;;;;;5.95;3.28;;;;;;;;;;5050096;28;20735;-77
2023/05/19 13:20:58;;;;;;;5.88;3.22;;;;;;;;;;5041868;28;20196;-78
2023/05/19 13:23:25;;;;;;;6.75;3.17;;;;;;;;;;5040331;28;20232;-77
2023/05/19 13:25:54;;;;;;;9.18;2.85;;;;;;;;;;5031041;28;20248;-78
2023/05/19 13:28:22;;;;;;;6.78;3.20;;;;;;;;;;5037570;28;20203;-77
2023/05/19 13:30:50;;;;;;;5.82;2.92;;;;;;;;;;5041612;28;20203;-78
2023/05/19 13:33:17;;;;;;;13.30;3.63;;;;;;;;;;5044375;28;20263;-77
2023/05/19 13:35:44;;;;;;;6.55;2.90;;;;;;;;;;5047209;28;20282;-77
2023/05/19 13:38:11;;;;;;;5.88;2.88;;;;;;;;;;5037833;28;20287;-77
2023/05/19 13:40:38;;;;;;;4.97;2.70;;;;;;;;;;5049741;28;20284;-77
2023/05/19 13:43:07;;;;;;;6.35;2.85;;;;;;;;;;5042050;28;20231;-76
2023/05/19 13:45:34;;;;;;;8.82;2.97;;;;;;;;;;5041657;28;20228;-77
2023/05/19 13:48:02;;;;;;;5.57;2.50;;;;;;;;;;5049040;28;20282;-77
2023/05/19 13:50:29;;;;;;;3.80;2.95;;;;;;;;;;5035150;28;20196;-78
2023/05/19 13:52:56;;;;;;;12.88;3.83;;;;;;;;;;5035064;28;20192;-76
2023/05/19 13:55:25;;;;;;;4.25;2.50;;;;;;;;;;5043622;28;20199;-77
2023/05/19 13:57:53;;;;;;;3.33;2.47;;;;;;;;;;5038972;28;20196;-76
2023/05/19 14:00:21;;;;;;;4.13;2.50;;;;;;;;;;5048572;28;20251;-76
2023/05/19 14:02:49;;;;;;;4.85;3.00;;;;;;;;;;5047508;28;20287;-75
2023/05/19 14:05:16;;;;;;;5.80;3.00;;;;;;;;;;5036447;28;20228;-76
2023/05/19 14:07:43;;;;;;;4.32;2.40;;;;;;;;;;5031805;28;20224;-77
2023/05/19 14:10:10;;;;;;;5.43;2.67;;;;;;;;;;5034914;28;20641;-77
2023/05/19 14:12:38;;;;;;;4.70;2.50;;;;;;;;;;5044624;28;20286;-76
2023/05/19 14:15:06;;;;;;;7.32;2.60;;;;;;;;;;5044977;28;20739;-76
2023/05/19 14:17:34;;;;;;;7.38;2.80;;;;;;;;;;5040651;28;20250;-76
2023/05/19 14:20:01;;;;;;;3.53;2.38;;;;;;;;;;5048588;28;20295;-76
2023/05/19 14:22:29;;;;;;;4.57;2.10;;;;;;;;;;5035615;28;20232;-77
2023/05/19 14:24:56;;;;;;;3.47;2.47;;;;;;;;;;5032177;28;20364;-77
2023/05/19 14:27:23;;;;;;;4.68;2.40;;;;;;;;;;5040103;28;20805;-76
2023/05/19 14:29:50;;;;;;;3.45;2.40;;;;;;;;;;5039402;28;20342;-77
2023/05/19 14:32:17;;;;;;;3.53;2.40;;;;;;;;;;5031674;28;20254;-76
2023/05/19 14:34:46;;;;;;;2.90;2.10;;;;;;;;;;5034463;28;20197;-77
2023/05/19 14:37:13;;;;;;;3.92;2.33;;;;;;;;;;5029537;28;20677;-76
2023/05/19 14:39:40;;;;;;;3.58;2.13;;;;;;;;;;5044745;28;20705;-77
2023/05/19 14:42:07;;;;;;;4.05;2.08;;;;;;;;;;5032947;28;20201;-78
2023/05/19 14:44:36;;;;;;;2.72;1.73;;;;;;;;;;5049119;28;20220;-77